Time;durP1;ratioP1;P1;durP2;ratioP2;P2;SDS_P1;SDS_P2;PMS_P1;PMS_P2;Temp;Humidity;BMP_temperature;BMP_pressure;BME280_temperature;BME280_humidity;BME280_pressure;Samples;Min_cycle;Max_cycle;Signal;HPM_P1;HPM_P2
2022/06/01 00:00:54;;;;;;;12.50;9.13;;;20.10;92.50;;;;;;4989622;28;20213;-86
2022/06/01 00:03:24;;;;;;;10.90;9.37;;;20.00;92.50;;;;;;5004069;28;20235;-85
2022/06/01 00:05:53;;;;;;;11.37;9.03;;;20.00;92.50;;;;;;5006155;28;20210;-86
2022/06/01 00:08:22;;;;;;;13.57;10.03;;;20.00;92.50;;;;;;5006494;28;20213;-86
2022/06/01 00:10:53;;;;;;;11.03;9.93;;;20.00;92.50;;;;;;5021964;28;20207;-85
2022/06/01 00:13:21;;;;;;;13.93;9.93;;;20.00;92.50;;;;;;5005966;28;20245;-86
2022/06/01 00:15:52;;;;;;;11.73;10.63;;;20.00;92.60;;;;;;5001209;28;20214;-86
2022/06/01 00:18:22;;;;;;;8.30;7.53;;;20.00;92.60;;;;;;5000346;28;20264;-85
2022/06/01 00:20:51;;;;;;;12.27;7.67;;;20.00;92.60;;;;;;4999074;28;20203;-86
2022/06/01 00:23:19;;;;;;;11.07;9.97;;;20.00;92.70;;;;;;5006183;28;20207;-86
2022/06/01 00:25:47;;;;;;;14.03;10.60;;;19.90;92.70;;;;;;5006186;28;20697;-86
2022/06/01 00:28:15;;;;;;;12.47;11.20;;;19.90;92.80;;;;;;4989790;28;20207;-85
2022/06/01 00:30:43;;;;;;;14.57;12.20;;;20.00;93.00;;;;;;5033319;28;20210;-85
2022/06/01 00:33:11;;;;;;;15.77;13.13;;;20.00;93.30;;;;;;4989268;28;20245;-85
2022/06/01 00:35:39;;;;;;;16.67;13.23;;;20.00;93.10;;;;;;5006711;28;20210;-85
2022/06/01 00:38:06;;;;;;;18.73;14.87;;;20.00;93.20;;;;;;5015669;28;20709;-86
2022/06/01 00:40:39;;;;;;;24.57;16.13;;;19.90;93.30;;;;;;5000183;28;20229;-85
2022/06/01 00:43:22;;;;;;;20.37;15.23;;;20.00;93.40;;;;;;5000049;28;20209;-86
2022/06/01 00:45:50;;;;;;;19.20;15.97;;;20.00;93.50;;;;;;4996669;28;20646;-86
2022/06/01 00:48:25;;;;;;;17.10;15.13;;;20.00;93.60;;;;;;5022549;28;20707;-86
2022/06/01 00:50:53;;;;;;;24.70;16.20;;;20.00;93.60;;;;;;5015135;28;20527;-86
2022/06/01 00:53:25;;;;;;;27.27;16.70;;;20.00;93.60;;;;;;4988858;28;20313;-86
2022/06/01 00:56:01;;;;;;;17.53;15.53;;;20.00;93.50;;;;;;4991348;28;20222;-87
2022/06/01 00:58:33;;;;;;;20.07;15.37;;;20.00;93.50;;;;;;5004979;28;20278;-87
2022/06/01 01:01:01;;;;;;;18.93;16.77;;;20.00;93.40;;;;;;5004252;28;20214;-87
2022/06/01 01:03:35;;;;;;;17.90;16.10;;;19.90;93.30;;;;;;4995780;28;20211;-87
2022/06/01 01:06:28;;;;;;;21.87;17.53;;;19.90;93.30;;;;;;5004124;28;20207;-87
2022/06/01 01:08:58;;;;;;;27.03;19.77;;;19.90;93.30;;;;;;4992150;28;20265;-86
2022/06/01 01:11:31;;;;;;;21.30;17.57;;;19.90;93.30;;;;;;5013057;28;20218;-85
2022/06/01 01:14:00;;;;;;;21.17;18.90;;;19.80;93.40;;;;;;5014678;28;20264;-86
2022/06/01 01:16:30;;;;;;;25.27;19.30;;;19.80;93.50;;;;;;5004400;28;20285;-86
2022/06/01 01:19:01;;;;;;;25.60;16.83;;;19.80;93.60;;;;;;5004273;28;20231;-86
2022/06/01 01:21:47;;;;;;;45.90;17.73;;;19.80;93.60;;;;;;4999467;28;20226;-86
2022/06/01 01:24:32;;;;;;;30.23;16.80;;;19.80;93.60;;;;;;5027144;28;20201;-86
2022/06/01 01:27:00;;;;;;;30.13;16.73;;;19.80;93.60;;;;;;5002206;28;20204;-87
2022/06/01 01:29:46;;;;;;;102.70;19.00;;;19.80;93.50;;;;;;5000568;28;20218;-87
2022/06/01 01:32:14;;;;;;;117.00;18.47;;;19.70;93.50;;;;;;5002359;28;20205;-87
2022/06/01 01:34:43;;;;;;;25.53;17.83;;;19.70;93.40;;;;;;4985711;28;20306;-87
2022/06/01 01:37:27;;;;;;;63.83;16.37;;;19.60;93.40;;;;;;5002030;28;20206;-86
2022/06/01 01:39:56;;;;;;;24.40;17.83;;;19.60;93.50;;;;;;5018302;28;20218;-87
2022/06/01 01:42:24;;;;;;;22.80;18.57;;;19.60;93.50;;;;;;5002336;28;20696;-87
2022/06/01 01:45:17;;;;;;;23.03;17.83;;;19.60;93.70;;;;;;5002245;28;20212;-87
2022/06/01 01:47:44;;;;;;;22.53;18.27;;;19.60;93.80;;;;;;4985421;28;20235;-87
2022/06/01 01:50:12;;;;;;;19.23;17.23;;;19.60;93.80;;;;;;5003101;28;20218;-87
2022/06/01 01:52:39;;;;;;;25.27;19.57;;;19.60;93.90;;;;;;5001858;28;20209;-87
2022/06/01 01:55:15;;;;;;;29.37;19.50;;;19.50;93.80;;;;;;5000909;28;20296;-87
2022/06/01 01:57:48;;;;;;;32.83;19.97;;;19.60;93.70;;;;;;4999535;28;20282;-87
2022/06/01 02:00:24;;;;;;;28.97;19.27;;;19.50;93.60;;;;;;5000024;28;20217;-87
2022/06/01 02:03:10;;;;;;;22.50;19.13;;;19.40;93.60;;;;;;5000580;28;20215;-87
2022/06/01 02:06:20;;;;;;;34.03;18.60;;;19.40;93.70;;;;;;5016533;28;20229;-87
2022/06/01 02:08:57;;;;;;;224.20;21.80;;;19.40;93.80;;;;;;5009066;28;20588;-86
2022/06/01 02:14:29;;;;;;;40.60;18.63;;;19.40;93.90;;;;;;5017090;28;20215;-87
2022/06/01 02:17:01;;;;;;;25.33;17.93;;;19.40;94.00;;;;;;5007605;28;20218;-87
2022/06/01 02:20:00;;;;;;;52.87;19.77;;;19.40;94.10;;;;;;5019078;28;20744;-87
2022/06/01 02:22:28;;;;;;;66.50;20.33;;;19.40;94.30;;;;;;5004283;28;20193;-86
2022/06/01 02:24:56;;;;;;;21.30;17.53;;;19.50;94.30;;;;;;5005025;28;20573;-87
2022/06/01 02:27:24;;;;;;;25.37;20.03;;;19.50;94.30;;;;;;4988387;28;20202;-87
2022/06/01 02:29:59;;;;;;;31.37;18.53;;;19.50;94.40;;;;;;5003594;28;20277;-87
2022/06/01 02:32:28;;;;;;;30.77;19.03;;;19.50;94.40;;;;;;5003653;28;20214;-87
2022/06/01 02:34:59;;;;;;;26.70;19.63;;;19.50;94.40;;;;;;5001459;28;20302;-87
2022/06/01 02:37:29;;;;;;;29.87;19.53;;;19.50;94.40;;;;;;5002151;28;20215;-87
2022/06/01 02:39:59;;;;;;;35.63;20.77;;;19.60;94.50;;;;;;4985185;28;20230;-87
2022/06/01 02:42:26;;;;;;;42.00;21.20;;;19.60;94.50;;;;;;5016872;28;20199;-87
2022/06/01 02:45:02;;;;;;;36.53;22.97;;;19.60;94.50;;;;;;5006037;28;20276;-87
2022/06/01 02:47:56;;;;;;;50.43;23.33;;;19.60;94.50;;;;;;4994314;28;20278;-87
2022/06/01 02:50:27;;;;;;;77.03;23.93;;;19.60;94.60;;;;;;4991752;28;20241;-87
2022/06/01 02:52:57;;;;;;;41.73;21.70;;;19.60;94.60;;;;;;4994554;28;20210;-87
2022/06/01 02:55:27;;;;;;;38.33;21.87;;;19.70;94.70;;;;;;5001465;28;20211;-86
2022/06/01 02:57:56;;;;;;;40.53;21.50;;;19.70;94.70;;;;;;5001132;28;20229;-86
2022/06/01 03:00:37;;;;;;;30.23;19.63;;;19.70;94.70;;;;;;4995670;28;20256;-86
2022/06/01 03:03:06;;;;;;;60.47;20.23;;;19.70;94.60;;;;;;4990628;28;20311;-86
2022/06/01 03:05:37;;;;;;;73.00;21.60;;;19.70;94.60;;;;;;5004295;28;20206;-86
2022/06/01 03:08:08;;;;;;;37.17;21.30;;;19.70;94.80;;;;;;5019131;28;20215;-86
2022/06/01 03:10:39;;;;;;;39.57;22.27;;;19.70;94.60;;;;;;5011680;28;20203;-86
2022/06/01 03:13:23;;;;;;;47.53;20.97;;;19.70;94.60;;;;;;5026994;28;20237;-86
2022/06/01 03:15:52;;;;;;;47.07;22.20;;;19.70;94.60;;;;;;5005381;28;20219;-86
2022/06/01 03:18:20;;;;;;;36.80;22.40;;;19.60;94.60;;;;;;5002486;28;20687;-86
2022/06/01 03:20:52;;;;;;;23.97;20.27;;;19.60;94.60;;;;;;5001047;28;20211;-86
2022/06/01 03:23:40;;;;;;;36.93;21.10;;;19.60;94.60;;;;;;5015514;28;20206;-86
2022/06/01 03:26:07;;;;;;;46.67;21.37;;;19.60;94.60;;;;;;5001031;28;20560;-86
2022/06/01 03:28:34;;;;;;;30.47;22.23;;;19.60;94.70;;;;;;5008441;28;20637;-86
2022/06/01 03:31:02;;;;;;;52.80;23.30;;;19.60;94.60;;;;;;4996586;28;20278;-86
2022/06/01 03:33:29;;;;;;;42.53;22.07;;;19.60;94.70;;;;;;5006493;28;20218;-86
2022/06/01 03:35:57;;;;;;;35.67;23.70;;;19.60;94.70;;;;;;5002973;28;20206;-86
2022/06/01 03:38:25;;;;;;;42.23;23.47;;;19.60;94.80;;;;;;5003171;28;20670;-86
2022/06/01 03:40:53;;;;;;;34.57;22.67;;;19.60;94.80;;;;;;5019428;28;20217;-86
2022/06/01 03:43:21;;;;;;;35.47;21.83;;;19.60;94.90;;;;;;4994407;28;20269;-86
2022/06/01 03:45:55;;;;;;;38.53;20.43;;;19.60;94.90;;;;;;4990692;28;20214;-86
2022/06/01 03:48:24;;;;;;;23.73;18.93;;;19.60;94.90;;;;;;4998207;28;20215;-85
2022/06/01 03:50:52;;;;;;;43.30;20.60;;;19.60;94.90;;;;;;4995760;28;20665;-85
2022/06/01 03:53:19;;;;;;;26.17;20.30;;;19.60;94.80;;;;;;4994948;28;20300;-86
2022/06/01 03:55:47;;;;;;;32.10;20.03;;;19.60;94.80;;;;;;4998504;28;20217;-85
2022/06/01 03:58:18;;;;;;;37.60;19.47;;;19.60;94.80;;;;;;4991518;28;20313;-84
2022/06/01 04:00:46;;;;;;;29.13;20.03;;;19.60;94.80;;;;;;5020552;28;20207;-86
2022/06/01 04:03:13;;;;;;;41.37;19.53;;;19.60;94.70;;;;;;5001891;28;20236;-84
2022/06/01 04:05:41;;;;;;;25.27;19.70;;;19.60;94.70;;;;;;5019321;28;20214;-86
2022/06/01 04:08:09;;;;;;;31.23;20.77;;;19.70;94.70;;;;;;5011270;28;20301;-86
2022/06/01 04:10:39;;;;;;;35.00;21.07;;;19.70;94.70;;;;;;4999463;28;20278;-85
2022/06/01 04:13:06;;;;;;;26.30;20.13;;;19.70;94.70;;;;;;4994731;28;20242;-85
2022/06/01 04:15:34;;;;;;;30.40;20.33;;;19.70;94.70;;;;;;5022614;28;20624;-86
2022/06/01 04:18:01;;;;;;;44.00;19.63;;;19.70;94.70;;;;;;5002811;28;20260;-85
2022/06/01 04:20:29;;;;;;;26.90;18.87;;;19.80;94.80;;;;;;5015586;28;20569;-86
2022/06/01 04:23:00;;;;;;;42.53;17.97;;;19.70;94.80;;;;;;5001234;28;20269;-85
2022/06/01 04:25:29;;;;;;;24.63;17.03;;;19.80;94.60;;;;;;4989556;28;20534;-85
2022/06/01 04:27:57;;;;;;;23.63;16.77;;;19.80;94.60;;;;;;4998166;28;20231;-85
2022/06/01 04:30:25;;;;;;;21.07;16.93;;;19.80;94.60;;;;;;5017297;28;20240;-86
2022/06/01 04:32:53;;;;;;;21.73;16.27;;;19.80;94.60;;;;;;5001264;28;20603;-86
2022/06/01 04:35:22;;;;;;;17.63;15.97;;;19.80;94.60;;;;;;5001148;28;20204;-85
2022/06/01 04:37:49;;;;;;;19.03;17.07;;;19.90;94.60;;;;;;5001376;28;20214;-86
2022/06/01 04:40:19;;;;;;;18.47;16.47;;;19.90;94.60;;;;;;4999817;28;20278;-86
2022/06/01 04:42:46;;;;;;;18.43;16.70;;;19.90;94.50;;;;;;5019156;28;20650;-85
2022/06/01 04:45:15;;;;;;;18.40;16.50;;;19.90;94.40;;;;;;5018259;28;20277;-85
2022/06/01 04:47:43;;;;;;;18.73;16.93;;;20.00;94.40;;;;;;5015483;28;20211;-86
2022/06/01 04:50:11;;;;;;;20.30;18.30;;;20.00;94.30;;;;;;4999323;28;20227;-86
2022/06/01 04:52:39;;;;;;;20.87;18.67;;;20.00;94.20;;;;;;5016875;28;20218;-85
2022/06/01 04:55:07;;;;;;;20.03;18.13;;;20.00;94.10;;;;;;4987623;28;20297;-85
2022/06/01 04:57:39;;;;;;;20.47;18.40;;;20.10;94.10;;;;;;5000984;28;20222;-85
2022/06/01 05:00:08;;;;;;;19.23;17.43;;;20.10;94.00;;;;;;5024233;28;20539;-86
2022/06/01 05:02:36;;;;;;;21.43;19.30;;;20.10;94.00;;;;;;5000904;28;20627;-85
2022/06/01 05:05:04;;;;;;;21.33;18.80;;;20.20;94.00;;;;;;5017195;28;20202;-85
2022/06/01 05:07:31;;;;;;;21.60;19.30;;;20.20;93.90;;;;;;5004181;28;20617;-86
2022/06/01 05:09:59;;;;;;;21.00;19.00;;;20.30;93.80;;;;;;5000824;28;20207;-86
2022/06/01 05:12:27;;;;;;;21.63;18.30;;;20.40;93.80;;;;;;4997929;28;20247;-87
2022/06/01 05:14:54;;;;;;;19.97;18.23;;;20.50;93.80;;;;;;4984781;28;20866;-86
2022/06/01 05:17:21;;;;;;;22.20;17.27;;;20.60;93.70;;;;;;5021553;28;20530;-87
2022/06/01 05:19:49;;;;;;;18.73;16.93;;;20.80;93.60;;;;;;4993286;28;20235;-86
2022/06/01 05:22:16;;;;;;;20.73;18.57;;;20.90;93.40;;;;;;5003304;28;20199;-86
2022/06/01 05:24:43;;;;;;;20.40;18.47;;;21.20;93.00;;;;;;5016821;28;20207;-86
2022/06/01 05:27:11;;;;;;;23.90;19.50;;;21.40;92.60;;;;;;5000342;28;20235;-86
2022/06/01 05:29:40;;;;;;;22.00;19.17;;;21.50;92.20;;;;;;4969022;28;20522;-85
2022/06/01 05:32:09;;;;;;;20.70;18.60;;;21.60;92.00;;;;;;5000066;28;20207;-86
2022/06/01 05:34:37;;;;;;;21.07;18.83;;;21.70;91.80;;;;;;5000661;28;20227;-84
2022/06/01 05:37:05;;;;;;;23.83;19.27;;;21.80;91.70;;;;;;5000569;28;20229;-84
2022/06/01 05:39:32;;;;;;;22.43;20.07;;;21.90;91.60;;;;;;5000551;28;20223;-84
2022/06/01 05:42:00;;;;;;;24.37;21.80;;;21.90;91.20;;;;;;5000579;28;20208;-84
2022/06/01 05:44:31;;;;;;;23.00;20.50;;;21.90;91.30;;;;;;5001282;28;20265;-84
2022/06/01 05:47:00;;;;;;;23.87;21.33;;;21.90;91.20;;;;;;5019985;28;20209;-83
2022/06/01 05:49:32;;;;;;;23.10;20.27;;;21.90;91.20;;;;;;4999518;28;20223;-84
2022/06/01 05:52:00;;;;;;;33.27;23.10;;;21.90;91.10;;;;;;5000468;28;20200;-84
2022/06/01 05:54:27;;;;;;;26.00;21.97;;;21.90;91.00;;;;;;5000520;28;20210;-85
2022/06/01 05:56:55;;;;;;;25.80;23.13;;;21.80;90.80;;;;;;5015615;28;20561;-84
2022/06/01 05:59:26;;;;;;;26.93;24.07;;;21.80;90.50;;;;;;5017889;28;20223;-84
2022/06/01 06:01:53;;;;;;;28.03;25.13;;;21.70;90.40;;;;;;5000442;28;20587;-84
2022/06/01 06:04:21;;;;;;;29.90;26.03;;;21.60;90.50;;;;;;5000630;28;20625;-85
2022/06/01 06:06:49;;;;;;;28.10;25.13;;;21.60;91.00;;;;;;5016666;28;20195;-83
2022/06/01 06:09:17;;;;;;;33.33;27.10;;;21.50;91.10;;;;;;4999932;28;20218;-84
2022/06/01 06:11:44;;;;;;;30.10;27.00;;;21.50;91.10;;;;;;5013457;28;20242;-84
2022/06/01 06:14:11;;;;;;;31.20;27.97;;;21.50;91.50;;;;;;5000559;28;20233;-84
2022/06/01 06:16:42;;;;;;;30.90;27.63;;;21.60;91.20;;;;;;5018105;28;20548;-84
2022/06/01 06:19:11;;;;;;;32.10;28.73;;;21.60;90.90;;;;;;5023027;28;20223;-84
2022/06/01 06:21:39;;;;;;;31.83;28.73;;;21.60;90.60;;;;;;5022953;28;20210;-84
2022/06/01 06:24:10;;;;;;;32.63;28.97;;;21.60;90.90;;;;;;5033704;28;20195;-83
2022/06/01 06:26:39;;;;;;;30.73;27.40;;;21.70;91.30;;;;;;5001547;28;20226;-83
2022/06/01 06:29:10;;;;;;;33.97;26.87;;;21.90;91.30;;;;;;4982504;28;20277;-84
2022/06/01 06:31:40;;;;;;;27.53;24.43;;;22.00;90.80;;;;;;5011343;28;20207;-84
2022/06/01 06:34:17;;;;;;;29.17;24.27;;;22.20;90.30;;;;;;5000700;28;20214;-84
2022/06/01 06:36:45;;;;;;;24.87;22.40;;;22.30;90.10;;;;;;5000479;28;20211;-84
2022/06/01 06:39:13;;;;;;;26.47;23.60;;;22.40;89.90;;;;;;5003020;28;20232;-83
2022/06/01 06:41:41;;;;;;;26.20;23.43;;;22.60;89.40;;;;;;4994735;28;20239;-83
2022/06/01 06:44:08;;;;;;;26.60;23.80;;;22.70;88.60;;;;;;5000238;28;20218;-84
2022/06/01 06:46:36;;;;;;;26.40;23.60;;;22.80;88.00;;;;;;5016633;28;20208;-83
2022/06/01 06:49:06;;;;;;;28.03;25.10;;;23.00;87.70;;;;;;5018009;28;20204;-83
2022/06/01 06:51:37;;;;;;;30.50;24.37;;;23.10;86.10;;;;;;4986672;28;20211;-85
2022/06/01 06:54:08;;;;;;;28.10;24.10;;;23.20;85.00;;;;;;5019632;28;20200;-84
2022/06/01 06:56:39;;;;;;;26.67;24.03;;;23.30;84.80;;;;;;5006777;28;20204;-84
2022/06/01 06:59:07;;;;;;;27.67;24.67;;;23.50;84.20;;;;;;4992069;28;20224;-85
2022/06/01 07:01:34;;;;;;;29.53;25.23;;;23.60;84.60;;;;;;5001500;28;20209;-84
2022/06/01 07:04:02;;;;;;;27.67;24.87;;;23.80;84.20;;;;;;5002480;28;20215;-84
2022/06/01 07:06:30;;;;;;;30.03;24.30;;;23.90;83.50;;;;;;5007294;28;20288;-86
2022/06/01 07:09:01;;;;;;;29.47;26.60;;;24.10;82.30;;;;;;4986568;28;20207;-84
2022/06/01 07:11:32;;;;;;;29.93;26.80;;;24.20;82.20;;;;;;4986543;28;20212;-83
2022/06/01 07:14:00;;;;;;;34.03;25.77;;;24.30;81.90;;;;;;4990478;28;20200;-84
2022/06/01 07:16:33;;;;;;;29.33;26.40;;;24.40;81.90;;;;;;5003482;28;20212;-84
2022/06/01 07:19:14;;;;;;;30.87;26.67;;;24.50;80.60;;;;;;4987299;28;20294;-86
2022/06/01 07:22:03;;;;;;;31.97;28.57;;;24.60;79.20;;;;;;4997716;28;20197;-86
2022/06/01 07:24:30;;;;;;;32.20;28.63;;;24.60;78.90;;;;;;4977590;28;20219;-86
2022/06/01 07:26:58;;;;;;;34.13;28.40;;;24.50;79.00;;;;;;5000801;28;20217;-85
2022/06/01 07:29:27;;;;;;;40.57;34.60;;;24.40;79.70;;;;;;5018667;28;20265;-85
2022/06/01 07:31:55;;;;;;;45.53;33.37;;;24.40;80.60;;;;;;5014687;28;20212;-87
2022/06/01 07:34:23;;;;;;;41.17;34.03;;;24.60;80.80;;;;;;5004620;28;20270;-86
2022/06/01 07:43:05;;;;;;;41.13;33.97;;;24.70;79.70;;;;;;5024176;28;20218;-86
2022/06/01 07:45:23;;;;;;;45.33;38.13;;;24.80;80.90;;;;;;5019105;28;20215;-84
2022/06/01 07:47:51;;;;;;;54.20;41.17;;;24.80;81.60;;;;;;5018522;28;20200;-86
2022/06/01 07:50:41;;;;;;;46.17;37.57;;;25.00;82.00;;;;;;5004921;28;20204;-86
2022/06/01 07:53:16;;;;;;;44.70;39.10;;;25.10;81.00;;;;;;5005856;28;20223;-86
2022/06/01 07:55:44;;;;;;;48.77;40.33;;;25.30;80.40;;;;;;4994573;28;20243;-84
2022/06/01 07:58:14;;;;;;;49.77;41.90;;;25.40;79.20;;;;;;5018715;28;20298;-85
2022/06/01 08:00:44;;;;;;;48.13;39.27;;;25.40;78.50;;;;;;4985845;28;20251;-85
2022/06/01 08:03:15;;;;;;;44.63;37.67;;;25.40;78.90;;;;;;5001921;28;20212;-86
2022/06/01 08:05:43;;;;;;;50.93;37.70;;;25.40;78.80;;;;;;5014076;28;20200;-85
2022/06/01 08:08:11;;;;;;;48.20;38.63;;;25.40;78.70;;;;;;4997707;28;20219;-84
2022/06/01 08:10:41;;;;;;;51.93;42.13;;;25.20;79.70;;;;;;5014171;28;20695;-84
2022/06/01 08:16:44;;;;;;;52.03;39.87;;;25.20;79.80;;;;;;5002224;28;20228;-86
2022/06/01 08:19:16;;;;;;;50.77;41.33;;;25.10;80.90;;;;;;5014708;28;20214;-85
2022/06/01 08:21:44;;;;;;;49.73;40.30;;;24.90;80.80;;;;;;5005368;28;20544;-85
2022/06/01 08:24:12;;;;;;;54.97;41.93;;;24.80;81.60;;;;;;4986144;28;20224;-85
2022/06/01 08:26:40;;;;;;;55.23;42.57;;;24.60;81.70;;;;;;4998174;28;20208;-85
2022/06/01 08:29:10;;;;;;;54.13;41.10;;;24.50;82.50;;;;;;5007234;28;20235;-84
2022/06/01 08:31:38;;;;;;;54.07;40.63;;;24.50;83.10;;;;;;5019436;28;20211;-85
2022/06/01 08:34:05;;;;;;;51.17;40.37;;;24.40;83.40;;;;;;4983887;28;20302;-86
2022/06/01 08:36:33;;;;;;;51.37;39.43;;;24.30;84.10;;;;;;5002647;28;20221;-85
2022/06/01 08:39:00;;;;;;;49.57;39.40;;;24.40;84.50;;;;;;4995167;28;20215;-85
2022/06/01 08:41:35;;;;;;;50.57;37.97;;;24.50;84.80;;;;;;4990358;28;20226;-85
2022/06/01 08:44:21;;;;;;;52.03;39.53;;;24.50;84.30;;;;;;5008987;28;20308;-86
2022/06/01 08:46:53;;;;;;;43.83;35.47;;;24.60;84.00;;;;;;4994181;28;20691;-86
2022/06/01 08:49:25;;;;;;;41.40;31.07;;;24.70;84.30;;;;;;4999287;28;20211;-86
2022/06/01 08:51:53;;;;;;;38.37;29.70;;;24.80;83.80;;;;;;5008880;28;20279;-86
2022/06/01 08:54:21;;;;;;;33.20;29.57;;;25.00;83.90;;;;;;4989762;28;20231;-85
2022/06/01 08:56:56;;;;;;;31.50;26.90;;;25.20;83.40;;;;;;5014351;28;20263;-85
2022/06/01 08:59:48;;;;;;;27.77;24.83;;;25.40;83.60;;;;;;5001174;28;20220;-85
2022/06/01 09:02:22;;;;;;;32.47;25.93;;;25.60;81.80;;;;;;4993442;28;20242;-85
2022/06/01 09:04:59;;;;;;;30.73;27.10;;;25.70;80.90;;;;;;4984027;28;20205;-87
2022/06/01 09:07:36;;;;;;;25.70;22.67;;;25.70;81.10;;;;;;5012471;28;20208;-86
2022/06/01 09:10:25;;;;;;;26.83;24.00;;;25.90;81.80;;;;;;5006123;28;20595;-83
2022/06/01 09:13:15;;;;;;;27.73;23.83;;;26.10;81.60;;;;;;4999527;28;20255;-84
2022/06/01 09:15:47;;;;;;;24.43;21.83;;;26.40;80.80;;;;;;4983757;28;20234;-84
2022/06/01 09:18:18;;;;;;;28.17;24.70;;;26.60;79.30;;;;;;4997906;28;20204;-86
2022/06/01 09:23:33;;;;;;;32.93;25.23;;;26.80;77.70;;;;;;5013289;28;20302;-84
2022/06/01 09:26:03;;;;;;;27.53;24.67;;;26.70;78.80;;;;;;5002522;28;20215;-86
2022/06/01 09:28:43;;;;;;;28.47;25.30;;;26.80;78.80;;;;;;5000380;28;20206;-85
2022/06/01 09:31:14;;;;;;;31.43;25.03;;;26.90;76.30;;;;;;4985671;28;20660;-84
2022/06/01 09:33:44;;;;;;;27.57;24.27;;;26.80;77.20;;;;;;4986186;28;20248;-85
2022/06/01 09:36:11;;;;;;;26.80;23.80;;;26.70;78.00;;;;;;5000042;28;20241;-86
2022/06/01 09:38:56;;;;;;;24.67;22.00;;;26.80;78.40;;;;;;4991288;28;20636;-83
2022/06/01 09:41:25;;;;;;;28.30;24.03;;;27.00;78.10;;;;;;5002486;28;20235;-86
2022/06/01 09:44:06;;;;;;;24.33;21.67;;;27.20;77.10;;;;;;4999203;28;20219;-85
2022/06/01 09:46:48;;;;;;;27.10;23.87;;;27.40;75.00;;;;;;5014289;28;20200;-85
2022/06/01 09:49:27;;;;;;;26.43;23.70;;;27.40;74.80;;;;;;5015289;28;20230;-85
2022/06/01 09:52:12;;;;;;;26.37;23.57;;;27.60;76.00;;;;;;4995500;28;20204;-85
2022/06/01 09:55:29;;;;;;;27.57;24.67;;;27.80;73.60;;;;;;5010329;28;20197;-86
2022/06/01 10:56:48;;;;;;;12.37;8.93;;;29.90;60.80;;;;;;5090344;28;20219;-69
2022/06/01 10:59:17;;;;;;;11.67;7.67;;;30.00;61.00;;;;;;5054607;28;20206;-70
2022/06/01 11:01:45;;;;;;;13.37;9.03;;;30.10;62.00;;;;;;5076859;28;20571;-70
2022/06/01 11:04:39;;;;;;;15.63;10.53;;;30.30;62.00;;;;;;5055727;28;20206;-70
2022/06/01 11:07:27;;;;;;;12.30;10.20;;;30.40;60.00;;;;;;5053449;28;20202;-70
2022/06/01 11:10:04;;;;;;;12.27;10.80;;;30.30;59.80;;;;;;5092283;28;20259;-70
2022/06/01 11:12:46;;;;;;;10.70;9.60;;;30.30;59.40;;;;;;5071661;28;20205;-70
2022/06/01 11:15:38;;;;;;;13.33;10.40;;;30.10;59.80;;;;;;5080911;28;20215;-70
2022/06/01 11:18:12;;;;;;;14.83;11.63;;;29.90;59.80;;;;;;5061615;28;20227;-70
2022/06/01 11:20:48;;;;;;;15.03;11.20;;;29.80;59.40;;;;;;5064709;28;20210;-70
2022/06/01 11:23:32;;;;;;;18.73;11.90;;;29.70;61.10;;;;;;5087153;28;20212;-70
2022/06/01 11:26:13;;;;;;;15.10;12.27;;;29.60;61.30;;;;;;5082904;28;20211;-70
2022/06/01 11:28:59;;;;;;;12.53;11.10;;;29.60;60.00;;;;;;5069049;28;20703;-70
2022/06/01 11:31:29;;;;;;;13.37;10.03;;;29.50;61.20;;;;;;5089574;28;20205;-69
2022/06/01 11:34:24;;;;;;;16.80;10.43;;;29.50;62.30;;;;;;5075245;28;20230;-69
2022/06/01 11:37:09;;;;;;;13.63;9.17;;;29.60;62.30;;;;;;5074256;28;20236;-70
2022/06/01 11:40:08;;;;;;;17.20;12.07;;;29.50;61.90;;;;;;5067123;28;20618;-70
2022/06/01 11:42:42;;;;;;;14.20;10.50;;;29.40;60.70;;;;;;5081622;28;20202;-70
2022/06/01 11:45:13;;;;;;;12.67;10.97;;;29.40;60.80;;;;;;5087817;28;20602;-70
2022/06/01 11:47:51;;;;;;;12.63;10.07;;;29.30;60.90;;;;;;5085678;28;20189;-70
2022/06/01 11:50:43;;;;;;;14.90;10.23;;;29.30;61.70;;;;;;5086061;28;20204;-69
2022/06/01 11:53:18;;;;;;;15.30;9.77;;;29.40;60.40;;;;;;5088785;28;20550;-70
2022/06/01 11:55:48;;;;;;;14.27;8.67;;;29.50;61.90;;;;;;5076023;28;20245;-69
2022/06/01 11:58:36;;;;;;;14.40;8.90;;;29.50;60.30;;;;;;5053382;28;20216;-69
2022/06/01 12:01:13;;;;;;;11.37;8.30;;;29.40;59.60;;;;;;5089241;28;20221;-70
2022/06/01 12:03:52;;;;;;;11.30;7.00;;;29.30;59.00;;;;;;5091247;28;20205;-70
2022/06/01 12:06:48;;;;;;;7.73;6.83;;;29.30;59.70;;;;;;5070748;28;20197;-69
2022/06/01 12:09:24;;;;;;;13.23;8.03;;;29.20;60.60;;;;;;5090194;28;20260;-69
2022/06/01 12:11:52;;;;;;;11.30;9.63;;;29.10;60.40;;;;;;5069029;28;20205;-70
2022/06/01 12:14:32;;;;;;;11.17;8.37;;;29.00;60.60;;;;;;5061804;28;20213;-70
2022/06/01 12:17:17;;;;;;;14.40;8.07;;;29.00;60.70;;;;;;5051818;28;20224;-70
2022/06/01 12:19:47;;;;;;;15.23;10.10;;;29.10;60.00;;;;;;5071687;28;20664;-70
2022/06/01 12:28:52;;;;;;;11.83;7.27;;;29.60;57.70;;;;;;5072143;28;20206;-69
2022/06/01 12:31:35;;;;;;;9.43;8.07;;;29.80;59.20;;;;;;5081742;28;20202;-69
2022/06/01 12:34:16;;;;;;;11.00;7.07;;;29.90;57.70;;;;;;5066952;28;20205;-69
2022/06/01 12:37:10;;;;;;;10.97;8.07;;;29.90;58.20;;;;;;5072998;28;20537;-69
2022/06/01 12:39:40;;;;;;;8.87;6.93;;;29.90;56.00;;;;;;5045282;28;20288;-69
2022/06/01 12:42:43;;;;;;;12.40;8.10;;;29.80;57.50;;;;;;5089156;28;20229;-70
2022/06/01 12:45:16;;;;;;;11.30;7.73;;;29.60;57.40;;;;;;5068315;28;20273;-69
2022/06/01 12:48:04;;;;;;;13.83;8.43;;;29.40;57.80;;;;;;5087401;28;20210;-69
2022/06/01 12:50:52;;;;;;;10.60;6.60;;;29.30;59.20;;;;;;5082949;28;20202;-70
2022/06/01 12:53:27;;;;;;;8.13;7.07;;;29.20;60.20;;;;;;5054644;28;20205;-70
2022/06/01 12:56:20;;;;;;;10.23;7.30;;;29.10;58.30;;;;;;5073537;28;20240;-73
2022/06/01 12:58:50;;;;;;;8.57;7.33;;;28.90;58.00;;;;;;5044976;28;20206;-73
2022/06/01 13:01:28;;;;;;;11.20;7.70;;;28.90;58.30;;;;;;5082781;28;20228;-73
2022/06/01 13:03:59;;;;;;;11.60;7.73;;;29.10;58.70;;;;;;5050134;28;20221;-73
2022/06/01 13:06:27;;;;;;;9.20;6.60;;;29.30;58.70;;;;;;5063832;28;20620;-73
2022/06/01 13:09:10;;;;;;;10.27;7.70;;;29.50;58.10;;;;;;5061999;28;20210;-73
2022/06/01 13:11:38;;;;;;;13.57;6.93;;;29.60;55.90;;;;;;5039458;28;20209;-73
2022/06/01 13:14:09;;;;;;;7.33;5.60;;;29.70;56.00;;;;;;5072870;28;20271;-73
2022/06/01 13:16:47;;;;;;;10.10;5.93;;;29.80;57.10;;;;;;5073931;28;20205;-73
2022/06/01 13:19:24;;;;;;;9.20;6.80;;;30.00;56.40;;;;;;5048747;28;20565;-73
2022/06/01 13:22:22;;;;;;;7.97;6.77;;;30.30;56.40;;;;;;5074761;28;20217;-73
2022/06/01 13:24:56;;;;;;;9.13;6.13;;;30.30;54.50;;;;;;5060223;28;20209;-73
2022/06/01 13:27:28;;;;;;;10.77;6.27;;;30.30;55.90;;;;;;5055415;28;20263;-73
2022/06/01 13:29:59;;;;;;;6.87;5.57;;;30.40;55.50;;;;;;5073633;28;20222;-73
2022/06/01 13:32:37;;;;;;;7.33;5.43;;;30.40;55.60;;;;;;5038831;28;20200;-73
2022/06/01 13:35:20;;;;;;;10.17;6.37;;;30.50;56.30;;;;;;5084557;28;20676;-73
2022/06/01 13:37:52;;;;;;;10.20;6.03;;;30.60;55.50;;;;;;5079903;28;20208;-73
2022/06/01 13:40:25;;;;;;;7.40;5.17;;;30.80;55.50;;;;;;5066835;28;20213;-73
2022/06/01 13:43:16;;;;;;;9.50;5.60;;;30.90;55.00;;;;;;5062156;28;20194;-73
2022/06/01 13:46:05;;;;;;;10.47;5.93;;;31.00;54.30;;;;;;5057225;28;20224;-73
2022/06/01 13:48:35;;;;;;;8.50;5.40;;;31.20;54.60;;;;;;5066812;28;20542;-73
2022/06/01 13:51:11;;;;;;;6.23;5.33;;;31.30;53.00;;;;;;5073908;28;20198;-73
2022/06/01 13:53:46;;;;;;;7.93;6.17;;;31.40;52.60;;;;;;5055900;28;20648;-73
2022/06/01 13:56:15;;;;;;;11.67;6.23;;;31.40;54.00;;;;;;5054734;28;20729;-73
2022/06/01 13:58:55;;;;;;;11.30;6.50;;;31.30;53.70;;;;;;5066914;28;20297;-73
2022/06/01 14:01:45;;;;;;;9.87;6.23;;;31.10;54.30;;;;;;5055476;28;20233;-73
2022/06/01 14:04:23;;;;;;;8.83;6.77;;;30.80;54.30;;;;;;5052313;28;20202;-73
2022/06/01 14:06:56;;;;;;;8.33;5.93;;;30.70;54.70;;;;;;5066341;28;20201;-72
2022/06/01 14:09:29;;;;;;;8.53;6.17;;;30.60;56.30;;;;;;5050080;28;20339;-72
2022/06/01 14:11:58;;;;;;;10.67;6.37;;;30.70;55.70;;;;;;5075997;28;20292;-71
2022/06/01 14:14:35;;;;;;;8.20;6.43;;;30.70;55.70;;;;;;5056407;28;20217;-72
2022/06/01 14:17:06;;;;;;;9.13;6.70;;;30.70;55.00;;;;;;5055652;28;20260;-71
2022/06/01 14:19:34;;;;;;;6.57;5.90;;;30.70;54.60;;;;;;5070861;28;20271;-70
2022/06/01 14:22:02;;;;;;;10.47;5.10;;;30.50;55.00;;;;;;5066758;28;20655;-70